CheckWX is a tool to help pilots better visualize weather data.  It is not intended as a substitute for an official pre-flight weather briefing.

19:26:36 UTC

KMCW TAF
Mason City Municipal Airport
Mason City, Iowa, USA
KMCW 191722Z 1918/2018 18012G20KT P6SM SKC FM200100 19006KT P6SM FEW250 FM201500 04006KT P6SM BKN045

Jul-19@
18:00 UTC

Jul-19 @ 18:00 UTC

Jul-20@
01:00 UTC

Jul-20 @ 01:00 UTC

KMCW 191722Z 1918/2018 18012G20KT P6SM SKC
Wind
  • 180° at 12 KTS
  • {Gusting to 20 KTS
Cloud Levels
  • Clear skies

Jul-20@
01:00 UTC

Jul-20 @ 01:00 UTC

Jul-20@
15:00 UTC

Jul-20 @ 15:00 UTC

FM200100 19006KT P6SM FEW250

From

From Standard forecast or significant change

Wind
  • 190° at 6 KTS
Cloud Levels
  • Few at 25,000' AGL

Jul-20@
15:00 UTC

Jul-20 @ 15:00 UTC

Jul-20@
18:00 UTC

Jul-20 @ 18:00 UTC

FM201500 04006KT P6SM BKN045

From

From Standard forecast or significant change

Wind
  • 040° at 6 KTS
Cloud Levels
  • Broken at 4,500' AGL